Time;durP1;ratioP1;P1;durP2;ratioP2;P2;SDS_P1;SDS_P2;PMS_P1;PMS_P2;Temp;Humidity;BMP_temperature;BMP_pressure;BME280_temperature;BME280_humidity;BME280_pressure;Samples;Min_cycle;Max_cycle;Signal;HPM_P1;HPM_P2
2022/11/17 00:00:27;;;;;;;9.27;8.40;;;11.30;99.90;;;;;;10325847;28;20207;-80
2022/11/17 00:05:29;;;;;;;9.07;8.17;;;11.30;99.90;;;;;;10324409;28;20247;-82
2022/11/17 00:10:31;;;;;;;9.60;8.70;;;11.30;99.90;;;;;;10320029;28;20700;-81
2022/11/17 00:15:34;;;;;;;10.90;10.10;;;11.40;99.90;;;;;;10325500;28;20203;-81
2022/11/17 00:25:58;;;;;;;9.17;8.47;;;11.40;99.90;;;;;;10324813;28;20217;-82
2022/11/17 00:36:25;;;;;;;9.13;8.37;;;11.40;99.90;;;;;;10332203;28;20195;-80
2022/11/17 00:41:28;;;;;;;10.23;9.37;;;11.40;99.90;;;;;;10314585;28;20273;-79
2022/11/17 00:46:32;;;;;;;8.87;8.27;;;11.40;99.90;;;;;;10333565;28;20646;-78
2022/11/17 00:51:34;;;;;;;9.03;7.80;;;11.40;99.90;;;;;;10316863;28;20285;-79
2022/11/17 00:56:37;;;;;;;8.93;8.13;;;11.40;99.90;;;;;;10308390;28;20200;-79
2022/11/17 01:01:41;;;;;;;7.63;7.07;;;11.40;99.90;;;;;;10322912;28;20215;-79
2022/11/17 01:06:45;;;;;;;7.80;7.27;;;11.40;99.90;;;;;;10291375;28;20605;-79
2022/11/17 01:11:48;;;;;;;6.93;6.43;;;11.50;99.90;;;;;;10302376;28;20229;-79
2022/11/17 01:16:52;;;;;;;6.90;6.50;;;11.50;99.90;;;;;;10288239;28;20247;-79
2022/11/17 01:21:54;;;;;;;8.50;7.80;;;11.50;99.90;;;;;;10319108;28;20225;-79
2022/11/17 01:26:56;;;;;;;7.30;6.80;;;11.50;99.90;;;;;;10309169;28;20287;-79
2022/11/17 01:31:59;;;;;;;7.07;6.67;;;11.50;99.90;;;;;;10304950;28;20553;-80
2022/11/17 01:37:19;;;;;;;7.70;7.10;;;11.50;99.90;;;;;;10313081;28;20555;-80
2022/11/17 01:42:24;;;;;;;8.13;7.37;;;11.50;99.90;;;;;;10325091;28;20222;-80
2022/11/17 01:47:36;;;;;;;7.47;6.93;;;11.50;99.90;;;;;;10313970;28;20306;-82
2022/11/17 01:52:39;;;;;;;7.17;6.67;;;11.50;99.90;;;;;;10308946;28;20235;-79
2022/11/17 01:57:46;;;;;;;48.77;43.10;;;11.50;99.90;;;;;;10324321;28;20204;-80
2022/11/17 02:02:50;;;;;;;8.70;8.00;;;11.50;99.90;;;;;;10305530;28;20219;-80
2022/11/17 02:07:54;;;;;;;7.47;6.97;;;11.60;99.90;;;;;;10325398;28;20286;-79
2022/11/17 02:12:56;;;;;;;7.27;6.63;;;11.60;99.90;;;;;;10290882;28;20216;-80
2022/11/17 02:18:00;;;;;;;7.63;7.00;;;11.60;99.90;;;;;;10322901;28;20195;-80
2022/11/17 02:23:24;;;;;;;7.30;6.70;;;11.60;99.90;;;;;;10291003;28;20258;-79
2022/11/17 02:28:29;;;;;;;7.10;6.50;;;11.50;99.90;;;;;;10338168;28;20286;-79
2022/11/17 02:33:42;;;;;;;6.93;6.40;;;11.50;99.90;;;;;;10303028;28;20211;-79
2022/11/17 02:38:53;;;;;;;7.40;6.80;;;11.40;99.90;;;;;;10308037;28;20199;-79
2022/11/17 02:44:04;;;;;;;9.80;8.90;;;11.40;99.90;;;;;;10340942;28;20643;-80
2022/11/17 02:49:10;;;;;;;7.40;6.90;;;11.30;99.90;;;;;;10302457;28;20202;-80
2022/11/17 02:54:13;;;;;;;7.07;6.67;;;11.30;99.90;;;;;;10326963;28;20601;-80
2022/11/17 02:59:21;;;;;;;7.17;6.00;;;11.20;99.90;;;;;;10318267;28;20286;-80
2022/11/17 03:04:31;;;;;;;7.10;6.60;;;11.20;99.90;;;;;;10327398;28;20254;-80
2022/11/17 03:09:44;;;;;;;7.30;5.80;;;11.20;99.90;;;;;;10309526;28;20211;-80
2022/11/17 03:14:52;;;;;;;6.20;5.70;;;11.20;99.90;;;;;;10344510;28;20552;-81
2022/11/17 03:19:59;;;;;;;7.47;6.87;;;11.30;99.90;;;;;;10299243;28;20211;-82
2022/11/17 03:25:05;;;;;;;5.90;5.50;;;11.40;99.90;;;;;;10346532;28;20578;-82
2022/11/17 03:30:10;;;;;;;6.00;5.60;;;11.40;99.90;;;;;;10295726;28;20296;-81
2022/11/17 03:35:15;;;;;;;6.03;5.63;;;11.40;99.90;;;;;;10345222;28;20307;-80
2022/11/17 03:40:22;;;;;;;7.27;6.77;;;11.30;99.90;;;;;;10309639;28;20343;-80
2022/11/17 03:45:27;;;;;;;6.03;5.63;;;11.30;99.90;;;;;;10291531;28;20278;-80
2022/11/17 03:50:34;;;;;;;6.30;5.93;;;11.30;99.90;;;;;;10338742;28;20659;-80
2022/11/17 03:55:43;;;;;;;6.63;6.13;;;11.30;99.90;;;;;;10307392;28;20355;-80
2022/11/17 04:00:51;;;;;;;7.20;6.70;;;11.30;99.90;;;;;;10339484;28;20242;-80
2022/11/17 04:05:53;;;;;;;9.10;8.50;;;11.30;99.90;;;;;;10274763;28;20251;-80
2022/11/17 04:16:17;;;;;;;9.73;9.10;;;11.10;99.90;;;;;;10304865;28;20223;-80
2022/11/17 04:21:18;;;;;;;9.77;9.20;;;11.00;99.90;;;;;;10307425;28;20632;-80
2022/11/17 04:31:41;;;;;;;11.80;11.10;;;10.90;99.90;;;;;;10325828;28;20583;-80
2022/11/17 04:36:43;;;;;;;11.87;11.27;;;10.80;99.90;;;;;;10303764;28;20204;-78
2022/11/17 04:41:56;;;;;;;12.80;12.00;;;10.80;99.90;;;;;;10376265;28;20226;-80
2022/11/17 04:47:01;;;;;;;12.43;11.70;;;10.80;99.90;;;;;;10304739;28;20226;-80
2022/11/17 04:52:04;;;;;;;12.90;12.00;;;10.80;99.90;;;;;;10329103;28;20235;-79
2022/11/17 04:57:06;;;;;;;13.80;12.90;;;10.80;99.90;;;;;;10298825;28;20196;-79
2022/11/17 05:02:09;;;;;;;14.80;13.70;;;10.80;99.90;;;;;;10306318;28;20270;-80
2022/11/17 05:07:11;;;;;;;15.10;14.07;;;10.80;99.90;;;;;;10285338;28;20216;-79
2022/11/17 05:17:34;;;;;;;15.70;14.80;;;10.90;99.90;;;;;;10289837;28;20220;-80
2022/11/17 05:27:56;;;;;;;12.23;11.57;;;10.90;99.90;;;;;;10298698;28;20216;-79
2022/11/17 05:32:59;;;;;;;13.67;12.83;;;10.90;99.90;;;;;;10285439;28;20609;-79
2022/11/17 05:38:01;;;;;;;15.07;14.07;;;10.90;99.90;;;;;;10332837;28;20694;-81
2022/11/17 05:43:03;;;;;;;15.87;14.80;;;11.00;99.90;;;;;;10308108;28;20257;-81
2022/11/17 05:48:07;;;;;;;16.83;15.47;;;11.00;99.90;;;;;;10273804;28;20219;-79
2022/11/17 05:53:09;;;;;;;15.03;14.23;;;11.00;99.90;;;;;;10274161;28;20226;-79
2022/11/17 05:58:16;;;;;;;16.00;14.90;;;11.10;99.90;;;;;;10335976;28;20229;-79
2022/11/17 06:03:24;;;;;;;15.30;14.40;;;11.10;99.90;;;;;;10271619;28;20318;-78
2022/11/17 06:08:27;;;;;;;14.63;13.70;;;11.10;99.90;;;;;;10292335;28;20248;-78
2022/11/17 06:13:29;;;;;;;15.50;14.60;;;11.10;99.90;;;;;;10288637;28;20236;-77
2022/11/17 06:18:37;;;;;;;15.67;14.87;;;11.00;99.90;;;;;;10330065;28;20205;-78
2022/11/17 06:23:39;;;;;;;26.67;24.57;;;11.00;99.90;;;;;;10271490;28;20219;-77
2022/11/17 06:28:47;;;;;;;16.60;15.60;;;11.10;99.90;;;;;;10328342;28;20203;-77
2022/11/17 06:33:50;;;;;;;13.77;12.87;;;11.10;99.90;;;;;;10288390;28;20207;-80
2022/11/17 06:38:52;;;;;;;12.23;11.53;;;11.10;99.90;;;;;;10293681;28;20278;-80
2022/11/17 06:43:54;;;;;;;13.50;12.80;;;11.00;99.90;;;;;;10313333;28;20227;-80
2022/11/17 06:48:58;;;;;;;13.40;12.70;;;11.00;99.90;;;;;;10309937;28;20696;-80
2022/11/17 06:54:00;;;;;;;11.90;11.10;;;11.00;99.90;;;;;;10333085;28;20306;-80
2022/11/17 06:59:02;;;;;;;12.00;11.10;;;11.00;99.90;;;;;;10317736;28;20231;-78
2022/11/17 07:04:06;;;;;;;11.53;10.47;;;11.00;99.90;;;;;;10296715;28;20231;-79
2022/11/17 07:09:08;;;;;;;7.73;7.33;;;11.00;99.90;;;;;;10317799;28;20199;-81
2022/11/17 07:14:10;;;;;;;10.40;9.70;;;11.10;99.90;;;;;;10291285;28;20292;-81
2022/11/17 07:19:14;;;;;;;9.03;8.53;;;11.10;99.90;;;;;;10344363;28;20215;-81
2022/11/17 07:24:16;;;;;;;10.53;9.93;;;11.20;99.90;;;;;;10300678;28;20427;-79
2022/11/17 07:29:18;;;;;;;9.13;8.63;;;11.20;99.90;;;;;;10343793;28;20195;-80
2022/11/17 07:34:21;;;;;;;9.30;8.80;;;11.20;99.90;;;;;;10301983;28;20259;-80
2022/11/17 07:39:23;;;;;;;8.63;8.03;;;11.30;99.90;;;;;;10334736;28;20199;-79
2022/11/17 07:44:25;;;;;;;8.60;7.90;;;11.40;99.90;;;;;;10326337;28;20219;-78
2022/11/17 07:49:29;;;;;;;7.10;6.80;;;11.50;99.90;;;;;;10303747;28;20235;-78
2022/11/17 07:54:31;;;;;;;7.90;7.40;;;11.60;99.90;;;;;;10317705;23;20298;-82
2022/11/17 07:59:33;;;;;;;8.53;8.00;;;11.60;99.90;;;;;;10302424;28;20194;-82
2022/11/17 08:04:36;;;;;;;7.20;6.60;;;11.60;99.90;;;;;;10301908;28;20224;-82
2022/11/17 08:09:38;;;;;;;6.33;5.93;;;11.80;99.90;;;;;;10292680;28;20196;-81
2022/11/17 08:14:40;;;;;;;6.67;6.23;;;11.90;99.90;;;;;;10291976;28;20219;-81
2022/11/17 08:19:44;;;;;;;6.23;5.87;;;12.10;99.90;;;;;;10246205;29;20201;-82
2022/11/17 08:24:46;;;;;;;6.27;5.87;;;12.20;99.90;;;;;;10292635;28;20211;-82
2022/11/17 08:29:48;;;;;;;5.87;5.57;;;12.30;99.90;;;;;;10299331;28;20278;-81
2022/11/17 08:34:51;;;;;;;5.40;5.10;;;12.40;99.90;;;;;;10264345;28;20212;-81
2022/11/17 08:39:53;;;;;;;4.57;4.37;;;12.50;99.90;;;;;;10265368;28;20196;-81
2022/11/17 08:44:55;;;;;;;4.10;3.90;;;12.50;99.90;;;;;;10281395;28;20684;-81
2022/11/17 08:49:59;;;;;;;5.70;4.33;;;12.60;99.90;;;;;;10265161;28;20671;-81
2022/11/17 08:55:01;;;;;;;5.70;5.20;;;12.60;99.90;;;;;;10282328;28;20250;-82
2022/11/17 09:00:05;;;;;;;5.37;5.00;;;12.50;99.90;;;;;;10283665;28;20200;-81
2022/11/17 09:05:09;;;;;;;4.80;4.60;;;12.50;99.90;;;;;;10297585;28;20208;-81
2022/11/17 09:10:12;;;;;;;4.47;4.20;;;12.50;99.90;;;;;;10299651;28;20628;-80
2022/11/17 09:15:14;;;;;;;6.03;4.73;;;12.50;99.90;;;;;;10282436;28;20648;-81
2022/11/17 09:20:19;;;;;;;5.30;5.00;;;12.60;99.90;;;;;;10283773;28;20204;-81
2022/11/17 09:25:21;;;;;;;4.70;4.40;;;12.70;99.90;;;;;;10297219;28;20286;-81
2022/11/17 09:30:23;;;;;;;3.90;3.70;;;12.80;99.90;;;;;;10279872;28;20647;-81
2022/11/17 09:35:27;;;;;;;4.20;4.10;;;12.90;99.90;;;;;;10277475;28;20197;-81
2022/11/17 09:40:29;;;;;;;4.20;4.00;;;13.00;99.90;;;;;;10281126;28;20230;-81
2022/11/17 09:45:36;;;;;;;4.47;4.17;;;13.10;99.90;;;;;;10295157;28;20267;-81
2022/11/17 09:50:45;;;;;;;4.73;4.37;;;13.20;99.90;;;;;;10293850;28;20646;-80
2022/11/17 09:55:50;;;;;;;4.40;4.20;;;13.40;99.90;;;;;;10256136;28;20188;-80
2022/11/17 10:01:00;;;;;;;4.53;4.13;;;13.50;99.90;;;;;;10294348;28;20270;-80
2022/11/17 10:06:06;;;;;;;6.23;3.70;;;13.50;99.90;;;;;;10270764;28;20216;-80
2022/11/17 10:16:28;;;;;;;4.10;3.80;;;13.60;99.90;;;;;;10277533;28;20238;-80
2022/11/17 10:21:31;;;;;;;4.90;4.57;;;13.50;99.90;;;;;;10279143;28;20208;-82
2022/11/17 10:26:45;;;;;;;3.17;3.07;;;13.50;99.90;;;;;;10298068;28;20403;-82
2022/11/17 10:31:47;;;;;;;4.93;4.53;;;13.50;99.90;;;;;;10311853;28;20271;-82
2022/11/17 10:36:51;;;;;;;7.97;4.50;;;13.40;99.90;;;;;;10300607;28;20684;-82
2022/11/17 10:41:53;;;;;;;4.40;4.10;;;13.40;99.90;;;;;;10302663;28;20243;-82
2022/11/17 10:46:56;;;;;;;4.10;3.60;;;13.50;99.90;;;;;;10275077;28;20687;-79
2022/11/17 10:52:14;;;;;;;5.77;3.80;;;13.60;99.90;;;;;;10289849;28;20319;-80
2022/11/17 10:57:20;;;;;;;5.27;4.10;;;13.80;99.90;;;;;;10256571;28;20210;-82
2022/11/17 11:02:29;;;;;;;5.60;4.53;;;13.90;99.90;;;;;;10303815;28;20228;-82
2022/11/17 11:07:32;;;;;;;4.33;3.93;;;13.90;99.90;;;;;;10286849;28;20224;-81
2022/11/17 11:12:41;;;;;;;5.57;4.33;;;13.80;99.90;;;;;;10269949;28;20290;-79
2022/11/17 11:17:43;;;;;;;5.50;5.10;;;13.60;99.90;;;;;;10270830;28;20204;-80
2022/11/17 11:22:54;;;;;;;5.10;4.60;;;13.50;99.90;;;;;;10283209;28;20684;-82
2022/11/17 11:28:07;;;;;;;5.40;4.40;;;13.40;99.90;;;;;;10285676;28;20264;-81
2022/11/17 11:33:23;;;;;;;6.67;4.60;;;13.30;99.90;;;;;;10266736;28;20259;-81
2022/11/17 11:38:55;;;;;;;5.07;3.13;;;13.30;99.90;;;;;;10285110;28;20199;-81
2022/11/17 11:44:13;;;;;;;5.30;4.80;;;13.20;99.90;;;;;;10270483;28;20703;-82
2022/11/17 11:49:29;;;;;;;6.47;4.53;;;13.20;99.90;;;;;;10295800;28;20239;-82
2022/11/17 11:54:38;;;;;;;6.40;5.20;;;13.20;99.90;;;;;;10301994;28;20223;-81
2022/11/17 11:59:47;;;;;;;5.37;4.80;;;13.30;99.90;;;;;;10283332;28;20202;-83
2022/11/17 12:04:56;;;;;;;6.07;4.20;;;13.40;99.90;;;;;;10270551;28;20236;-82
2022/11/17 12:10:06;;;;;;;4.00;3.40;;;13.40;99.90;;;;;;10283679;28;20577;-81
2022/11/17 12:15:36;;;;;;;4.20;3.90;;;13.40;99.90;;;;;;10300523;28;20207;-80
2022/11/17 12:20:55;;;;;;;4.57;4.33;;;13.40;99.90;;;;;;10256381;28;20223;-81
2022/11/17 12:26:03;;;;;;;6.90;5.10;;;13.30;99.90;;;;;;10277449;28;20223;-80
2022/11/17 12:31:09;;;;;;;7.60;4.50;;;13.30;99.90;;;;;;10291877;28;20224;-81
2022/11/17 12:36:30;;;;;;;3.80;3.10;;;13.30;99.90;;;;;;10253571;28;20236;-82
2022/11/17 12:42:05;;;;;;;5.03;4.60;;;13.30;99.90;;;;;;10264614;28;20311;-81
2022/11/17 12:47:14;;;;;;;4.93;4.50;;;13.40;99.90;;;;;;10269620;28;20592;-82
2022/11/17 12:52:23;;;;;;;6.70;4.53;;;13.30;99.90;;;;;;10300830;28;20489;-81
2022/11/17 12:57:31;;;;;;;5.13;4.70;;;13.30;99.90;;;;;;10307890;28;20228;-81
2022/11/17 13:03:09;;;;;;;6.83;3.30;;;13.30;99.90;;;;;;10300562;28;20219;-80
2022/11/17 13:08:21;;;;;;;3.80;3.40;;;13.30;99.90;;;;;;10300492;28;20283;-81
2022/11/17 13:13:25;;;;;;;7.50;6.03;;;13.40;99.90;;;;;;10282315;28;20230;-81
2022/11/17 13:18:31;;;;;;;6.30;5.10;;;13.40;99.90;;;;;;10281595;28;20320;-81
2022/11/17 13:23:33;;;;;;;7.50;4.57;;;13.40;99.90;;;;;;10300627;28;20591;-80
2022/11/17 13:28:37;;;;;;;7.43;4.40;;;13.50;99.90;;;;;;10298860;28;20219;-80
2022/11/17 13:33:40;;;;;;;6.80;4.60;;;13.50;99.90;;;;;;10283675;28;20226;-79
2022/11/17 13:38:48;;;;;;;6.40;4.17;;;13.60;99.90;;;;;;10286266;28;20300;-81
2022/11/17 13:43:53;;;;;;;4.57;4.17;;;13.60;99.90;;;;;;10282520;28;20224;-83
2022/11/17 13:48:56;;;;;;;4.07;3.67;;;13.60;99.90;;;;;;10289561;28;20255;-81
2022/11/17 13:54:01;;;;;;;5.70;4.40;;;13.70;99.90;;;;;;10379016;23;20283;-76
2022/11/17 13:59:17;;;;;;;6.70;4.27;;;13.60;99.90;;;;;;10409452;28;20197;-76
2022/11/17 14:04:20;;;;;;;11.43;5.50;;;13.60;99.90;;;;;;10410416;28;20316;-77
2022/11/17 14:09:24;;;;;;;5.70;3.97;;;13.50;99.90;;;;;;10393363;28;20221;-76
2022/11/17 14:14:36;;;;;;;5.60;4.40;;;13.50;99.90;;;;;;10411122;28;20639;-77
2022/11/17 14:19:38;;;;;;;8.70;3.67;;;13.50;99.90;;;;;;10412039;28;20296;-78
2022/11/17 14:24:40;;;;;;;9.10;5.40;;;13.40;99.90;;;;;;10410518;28;20632;-77
2022/11/17 14:29:44;;;;;;;6.07;4.63;;;13.30;99.90;;;;;;10411911;28;20218;-78
2022/11/17 14:34:46;;;;;;;12.83;4.80;;;13.30;99.90;;;;;;10417435;28;20669;-78
2022/11/17 14:39:48;;;;;;;9.00;5.60;;;13.30;99.90;;;;;;10418231;28;20328;-78
2022/11/17 14:44:51;;;;;;;12.10;4.73;;;13.30;99.90;;;;;;10416419;28;20221;-78
2022/11/17 14:49:53;;;;;;;13.87;6.77;;;13.20;99.90;;;;;;10416678;28;20704;-79
2022/11/17 14:54:55;;;;;;;14.20;6.70;;;13.10;99.90;;;;;;10418336;28;20265;-79
2022/11/17 14:59:58;;;;;;;11.80;6.13;;;13.00;99.90;;;;;;10415502;28;20504;-79
2022/11/17 15:05:01;;;;;;;34.60;15.40;;;13.00;99.90;;;;;;10415334;28;20694;-79
2022/11/17 15:10:04;;;;;;;14.10;8.10;;;12.90;99.90;;;;;;10416477;28;20198;-79
2022/11/17 15:15:08;;;;;;;20.03;12.97;;;12.90;99.90;;;;;;10419849;28;20214;-79
2022/11/17 15:20:11;;;;;;;17.57;10.20;;;12.90;99.90;;;;;;10425109;28;20285;-77
2022/11/17 15:25:13;;;;;;;17.57;9.70;;;12.90;99.90;;;;;;10427850;28;20250;-78
2022/11/17 15:30:17;;;;;;;8.23;5.70;;;12.80;99.90;;;;;;10419693;28;20220;-78
2022/11/17 15:35:19;;;;;;;10.50;6.63;;;12.80;99.90;;;;;;10419065;28;20244;-78
2022/11/17 15:40:22;;;;;;;7.43;6.17;;;12.80;99.90;;;;;;10421517;28;20198;-77
2022/11/17 15:45:25;;;;;;;10.33;5.30;;;12.80;99.90;;;;;;10416401;28;20308;-78
2022/11/17 15:50:27;;;;;;;8.53;5.30;;;12.70;99.90;;;;;;10415520;28;20700;-77
2022/11/17 15:55:29;;;;;;;11.67;7.37;;;12.70;99.90;;;;;;10415521;28;20658;-77
2022/11/17 16:00:34;;;;;;;10.50;5.77;;;12.70;99.90;;;;;;10414544;28;20560;-77
2022/11/17 16:05:36;;;;;;;8.40;5.40;;;12.60;99.90;;;;;;10414192;28;20300;-77
2022/11/17 16:10:38;;;;;;;8.03;5.20;;;12.60;99.90;;;;;;10413999;28;20210;-77
2022/11/17 16:15:42;;;;;;;12.00;5.80;;;12.50;99.90;;;;;;10413594;28;20284;-77
2022/11/17 16:20:44;;;;;;;8.40;7.10;;;12.50;99.90;;;;;;10398417;28;20206;-78
2022/11/17 16:25:47;;;;;;;10.30;4.60;;;12.40;99.90;;;;;;10413874;28;20309;-77
2022/11/17 16:30:51;;;;;;;8.07;5.43;;;12.30;99.90;;;;;;10413765;28;20296;-77
2022/11/17 16:35:53;;;;;;;12.20;5.80;;;12.30;99.90;;;;;;10404966;28;20285;-78
2022/11/17 16:40:59;;;;;;;12.50;6.20;;;12.30;99.90;;;;;;10413630;28;20667;-77
2022/11/17 16:46:15;;;;;;;11.37;6.07;;;12.20;99.90;;;;;;10412703;28;20570;-78
2022/11/17 16:51:18;;;;;;;12.63;5.73;;;12.10;99.90;;;;;;10408683;28;20236;-77
2022/11/17 16:56:20;;;;;;;12.97;4.20;;;12.10;99.90;;;;;;10408340;28;20285;-77
2022/11/17 17:01:25;;;;;;;9.40;4.00;;;12.00;99.90;;;;;;10414480;28;20213;-77
2022/11/17 17:06:28;;;;;;;7.70;5.67;;;12.00;99.90;;;;;;10417445;28;20328;-78
2022/11/17 17:11:31;;;;;;;9.07;4.83;;;12.00;99.90;;;;;;10418637;28;20218;-78
2022/11/17 17:16:36;;;;;;;12.63;5.33;;;12.00;99.90;;;;;;10416197;28;20190;-78
2022/11/17 17:21:40;;;;;;;6.80;4.30;;;12.00;99.90;;;;;;10417739;28;20222;-78
2022/11/17 17:26:42;;;;;;;8.20;4.60;;;12.00;99.90;;;;;;10421436;28;20288;-78
2022/11/17 17:31:46;;;;;;;9.03;6.20;;;12.00;99.90;;;;;;10410162;28;20304;-78
2022/11/17 17:36:48;;;;;;;6.00;4.80;;;12.00;99.90;;;;;;10413406;28;20573;-77
2022/11/17 17:41:50;;;;;;;8.63;5.50;;;12.00;99.90;;;;;;10409880;28;20224;-76
2022/11/17 17:46:55;;;;;;;13.00;8.70;;;12.10;99.90;;;;;;10407586;28;20236;-78
2022/11/17 17:51:58;;;;;;;7.10;5.60;;;12.20;99.90;;;;;;10407822;28;20974;-77
2022/11/17 17:57:00;;;;;;;7.00;5.13;;;12.30;99.90;;;;;;10408662;28;20556;-76
2022/11/17 18:02:03;;;;;;;10.03;4.60;;;12.30;99.90;;;;;;10397389;28;20264;-78
2022/11/17 18:07:05;;;;;;;7.53;4.77;;;12.30;99.90;;;;;;10410263;28;20205;-78
2022/11/17 18:12:07;;;;;;;7.60;4.93;;;12.40;99.90;;;;;;10416856;28;20224;-78
2022/11/17 18:17:11;;;;;;;7.03;5.33;;;12.40;99.90;;;;;;10411725;28;20286;-79
2022/11/17 18:22:13;;;;;;;7.10;4.93;;;12.40;99.90;;;;;;10414239;28;20245;-79
2022/11/17 18:27:15;;;;;;;7.17;5.43;;;12.40;99.90;;;;;;10415461;28;20226;-79
2022/11/17 18:32:18;;;;;;;8.17;4.63;;;12.50;99.90;;;;;;10418924;28;20259;-78
2022/11/17 18:37:20;;;;;;;10.70;5.30;;;12.50;99.90;;;;;;10416019;28;20200;-78
2022/11/17 18:42:22;;;;;;;7.50;5.40;;;12.50;99.90;;;;;;10412300;28;20217;-78
2022/11/17 18:47:25;;;;;;;6.70;6.00;;;12.50;99.90;;;;;;10414447;28;20568;-79
2022/11/17 18:52:27;;;;;;;15.17;11.47;;;12.50;99.90;;;;;;10415189;28;20324;-78
2022/11/17 18:57:29;;;;;;;10.73;9.50;;;12.40;99.90;;;;;;10414468;28;20198;-78
2022/11/17 19:02:34;;;;;;;9.30;5.70;;;12.40;99.90;;;;;;10414098;28;20229;-81
2022/11/17 19:07:36;;;;;;;6.70;6.10;;;12.40;99.90;;;;;;10419385;28;20696;-79
2022/11/17 19:12:38;;;;;;;4.80;4.50;;;12.40;99.90;;;;;;10424387;28;20238;-79
2022/11/17 19:17:41;;;;;;;5.57;5.07;;;12.40;99.90;;;;;;10425187;28;20217;-79
2022/11/17 19:22:43;;;;;;;8.33;5.47;;;12.50;99.90;;;;;;10422901;28;20502;-79
2022/11/17 19:27:45;;;;;;;6.53;4.93;;;12.50;99.90;;;;;;10423016;28;20226;-78
2022/11/17 19:32:49;;;;;;;4.40;4.10;;;12.50;99.90;;;;;;10424661;28;20218;-79
2022/11/17 19:37:51;;;;;;;4.70;4.00;;;12.50;99.90;;;;;;10423966;28;20236;-79
2022/11/17 19:42:53;;;;;;;6.53;5.93;;;12.50;99.90;;;;;;10416525;28;20442;-79
2022/11/17 19:47:58;;;;;;;5.00;4.60;;;12.40;99.90;;;;;;10416760;28;20241;-80
2022/11/17 19:53:00;;;;;;;3.90;3.60;;;12.40;99.90;;;;;;10448376;23;20241;-79
2022/11/17 19:58:02;;;;;;;5.90;4.33;;;12.30;99.90;;;;;;10399043;28;20191;-80
2022/11/17 20:03:05;;;;;;;4.63;4.43;;;12.30;99.90;;;;;;10405384;28;20233;-80
2022/11/17 20:08:08;;;;;;;3.73;3.53;;;12.20;99.90;;;;;;10418604;28;20210;-81
2022/11/17 20:13:13;;;;;;;4.03;3.83;;;12.10;99.90;;;;;;10371795;28;20264;-79
2022/11/17 20:18:16;;;;;;;5.67;5.37;;;12.00;99.90;;;;;;10379523;28;21085;-81
2022/11/17 20:23:18;;;;;;;6.97;6.57;;;11.90;99.90;;;;;;10357440;28;20528;-81
2022/11/17 20:28:23;;;;;;;8.13;7.60;;;11.80;99.90;;;;;;10379823;28;20712;-82
2022/11/17 20:33:29;;;;;;;7.93;7.60;;;11.70;99.90;;;;;;10359395;28;20238;-81
2022/11/17 20:38:34;;;;;;;7.13;6.73;;;11.50;99.90;;;;;;10343011;28;20203;-83
2022/11/17 20:43:36;;;;;;;7.33;6.93;;;11.40;99.90;;;;;;10377388;28;20288;-80
2022/11/17 20:48:40;;;;;;;8.97;8.60;;;11.30;99.90;;;;;;10373723;28;20206;-80
2022/11/17 20:53:43;;;;;;;9.70;9.30;;;11.20;99.90;;;;;;10329921;28;20728;-80
2022/11/17 20:58:45;;;;;;;8.90;8.50;;;11.10;99.90;;;;;;10349865;28;20666;-81
2022/11/17 21:03:49;;;;;;;10.50;10.00;;;11.00;99.90;;;;;;10342188;28;20432;-81
2022/11/17 21:08:52;;;;;;;9.40;9.10;;;11.00;99.90;;;;;;10373011;28;20249;-80
2022/11/17 21:13:54;;;;;;;11.17;10.67;;;10.90;99.90;;;;;;10356404;28;20234;-81
2022/11/17 21:18:58;;;;;;;11.17;10.77;;;10.90;99.90;;;;;;10356087;28;20210;-81
2022/11/17 21:24:00;;;;;;;12.00;11.50;;;10.80;99.90;;;;;;10379716;28;20268;-82
2022/11/17 21:29:02;;;;;;;9.60;9.20;;;10.80;99.90;;;;;;10363037;28;20328;-83
2022/11/17 21:34:06;;;;;;;9.83;9.53;;;10.80;99.90;;;;;;10362802;28;20273;-83
2022/11/17 21:39:09;;;;;;;10.00;9.70;;;10.80;99.90;;;;;;10363570;28;20204;-81
2022/11/17 21:44:13;;;;;;;11.17;10.70;;;10.70;99.90;;;;;;10366018;28;20317;-79
2022/11/17 21:49:17;;;;;;;10.83;10.20;;;10.70;99.90;;;;;;10370390;28;20226;-83
2022/11/17 21:54:19;;;;;;;11.90;11.20;;;10.50;99.90;;;;;;10358726;28;20257;-80
2022/11/17 21:59:21;;;;;;;10.60;10.10;;;10.50;99.90;;;;;;10358394;28;20547;-81
2022/11/17 22:04:25;;;;;;;16.53;15.20;;;10.40;99.90;;;;;;10374781;28;20686;-81
2022/11/17 22:09:27;;;;;;;12.03;11.30;;;10.40;99.90;;;;;;10358677;28;20728;-83
2022/11/17 22:14:29;;;;;;;12.57;11.77;;;10.40;99.90;;;;;;10344600;28;20214;-84
2022/11/17 22:19:32;;;;;;;11.97;11.47;;;10.40;99.90;;;;;;10359449;28;20198;-84
2022/11/17 22:24:34;;;;;;;12.40;11.80;;;10.40;99.90;;;;;;10360747;28;20297;-82
2022/11/17 22:29:37;;;;;;;11.60;11.00;;;10.30;99.90;;;;;;10344788;28;20598;-84
2022/11/17 22:34:40;;;;;;;11.33;10.83;;;10.20;99.90;;;;;;10311823;28;20638;-83
2022/11/17 22:39:44;;;;;;;11.00;10.60;;;10.20;99.90;;;;;;10355875;28;20203;-82
2022/11/17 22:44:46;;;;;;;11.50;11.00;;;10.20;99.90;;;;;;10349374;28;20250;-81
2022/11/17 22:49:49;;;;;;;27.03;24.50;;;10.20;99.90;;;;;;10371441;28;20226;-80
2022/11/17 22:54:51;;;;;;;27.00;24.67;;;10.20;99.90;;;;;;10360284;28;20789;-81
2022/11/17 22:59:54;;;;;;;10.33;9.93;;;10.20;99.90;;;;;;10377925;28;20234;-80
2022/11/17 23:04:57;;;;;;;10.47;10.07;;;10.20;99.90;;;;;;10343188;28;20251;-81
2022/11/17 23:09:59;;;;;;;13.20;12.60;;;10.10;99.90;;;;;;10362270;28;20226;-80
2022/11/17 23:15:01;;;;;;;11.70;11.20;;;10.10;99.90;;;;;;10361649;28;20218;-81
2022/11/17 23:20:05;;;;;;;12.30;11.80;;;10.10;99.90;;;;;;10356512;28;20203;-81
2022/11/17 23:25:08;;;;;;;10.70;10.30;;;10.10;99.90;;;;;;10377787;28;20227;-80
2022/11/17 23:30:11;;;;;;;12.20;11.70;;;10.10;99.90;;;;;;10377524;28;20309;-80
2022/11/17 23:35:15;;;;;;;12.97;12.30;;;10.20;99.90;;;;;;10361912;28;20229;-81
2022/11/17 23:40:17;;;;;;;13.50;12.70;;;10.20;99.90;;;;;;10379450;28;20225;-80
2022/11/17 23:45:19;;;;;;;12.77;12.13;;;10.30;99.90;;;;;;10360319;28;20218;-82
2022/11/17 23:50:23;;;;;;;12.83;12.23;;;10.30;99.90;;;;;;10361132;28;20227;-80
2022/11/17 23:55:25;;;;;;;12.63;12.03;;;10.40;99.90;;;;;;10377127;28;20289;-80
